sensor_id;sensor_type;location;lat;lon;timestamp;P1;durP1;ratioP1;P2;durP2;ratioP2
77597;SDS011;66756;42.774;23.354;2023-02-01T00:01:40;4.07;;;2.40;;
77597;SDS011;66756;42.774;23.354;2023-02-01T00:04:06;6.13;;;3.22;;
77597;SDS011;66756;42.774;23.354;2023-02-01T00:06:32;4.65;;;2.47;;
77597;SDS011;66756;42.774;23.354;2023-02-01T00:08:58;3.95;;;2.28;;
77597;SDS011;66756;42.774;23.354;2023-02-01T00:11:24;4.20;;;1.90;;
77597;SDS011;66756;42.774;23.354;2023-02-01T00:13:50;3.47;;;2.15;;
77597;SDS011;66756;42.774;23.354;2023-02-01T00:16:21;5.22;;;2.80;;
77597;SDS011;66756;42.774;23.354;2023-02-01T00:18:48;3.95;;;1.80;;
77597;SDS011;66756;42.774;23.354;2023-02-01T00:21:16;3.53;;;2.40;;
77597;SDS011;66756;42.774;23.354;2023-02-01T00:23:45;3.90;;;2.33;;
77597;SDS011;66756;42.774;23.354;2023-02-01T00:26:13;6.47;;;2.40;;
77597;SDS011;66756;42.774;23.354;2023-02-01T00:28:40;4.70;;;2.63;;
77597;SDS011;66756;42.774;23.354;2023-02-01T00:31:06;4.65;;;2.88;;
77597;SDS011;66756;42.774;23.354;2023-02-01T00:33:32;6.00;;;2.67;;
77597;SDS011;66756;42.774;23.354;2023-02-01T00:36:03;4.05;;;2.78;;
77597;SDS011;66756;42.774;23.354;2023-02-01T00:38:30;4.57;;;2.90;;
77597;SDS011;66756;42.774;23.354;2023-02-01T00:41:06;4.68;;;2.78;;
77597;SDS011;66756;42.774;23.354;2023-02-01T00:43:33;4.57;;;2.28;;
77597;SDS011;66756;42.774;23.354;2023-02-01T00:45:59;5.63;;;3.03;;
77597;SDS011;66756;42.774;23.354;2023-02-01T00:48:25;3.80;;;2.05;;
77597;SDS011;66756;42.774;23.354;2023-02-01T00:50:52;4.20;;;2.70;;
77597;SDS011;66756;42.774;23.354;2023-02-01T00:53:18;5.38;;;2.40;;
77597;SDS011;66756;42.774;23.354;2023-02-01T00:55:44;4.70;;;2.72;;
77597;SDS011;66756;42.774;23.354;2023-02-01T00:58:10;4.53;;;1.75;;
77597;SDS011;66756;42.774;23.354;2023-02-01T01:00:36;5.20;;;2.58;;
77597;SDS011;66756;42.774;23.354;2023-02-01T01:03:03;3.33;;;1.58;;
77597;SDS011;66756;42.774;23.354;2023-02-01T01:05:43;6.05;;;2.53;;
77597;SDS011;66756;42.774;23.354;2023-02-01T01:08:09;5.00;;;2.42;;
77597;SDS011;66756;42.774;23.354;2023-02-01T01:10:35;4.50;;;2.33;;
77597;SDS011;66756;42.774;23.354;2023-02-01T01:13:01;5.28;;;3.33;;
77597;SDS011;66756;42.774;23.354;2023-02-01T01:15:27;4.88;;;2.70;;
77597;SDS011;66756;42.774;23.354;2023-02-01T01:17:53;4.30;;;2.90;;
77597;SDS011;66756;42.774;23.354;2023-02-01T01:20:19;5.40;;;3.92;;
77597;SDS011;66756;42.774;23.354;2023-02-01T01:22:46;3.85;;;2.25;;
77597;SDS011;66756;42.774;23.354;2023-02-01T01:25:12;5.35;;;2.28;;
77597;SDS011;66756;42.774;23.354;2023-02-01T01:27:38;3.63;;;1.77;;
77597;SDS011;66756;42.774;23.354;2023-02-01T01:30:05;6.15;;;2.40;;
77597;SDS011;66756;42.774;23.354;2023-02-01T01:32:32;3.65;;;2.00;;
77597;SDS011;66756;42.774;23.354;2023-02-01T01:34:59;4.90;;;2.47;;
77597;SDS011;66756;42.774;23.354;2023-02-01T01:37:25;4.30;;;1.90;;
77597;SDS011;66756;42.774;23.354;2023-02-01T01:39:51;5.63;;;2.30;;
77597;SDS011;66756;42.774;23.354;2023-02-01T01:42:17;4.05;;;2.53;;
77597;SDS011;66756;42.774;23.354;2023-02-01T01:44:55;4.78;;;2.65;;
77597;SDS011;66756;42.774;23.354;2023-02-01T01:47:22;5.32;;;2.40;;
77597;SDS011;66756;42.774;23.354;2023-02-01T01:49:48;4.75;;;2.53;;
77597;SDS011;66756;42.774;23.354;2023-02-01T01:52:15;4.18;;;2.05;;
77597;SDS011;66756;42.774;23.354;2023-02-01T01:54:42;3.40;;;1.95;;
77597;SDS011;66756;42.774;23.354;2023-02-01T01:57:11;4.05;;;2.17;;
77597;SDS011;66756;42.774;23.354;2023-02-01T01:59:39;5.53;;;2.40;;
77597;SDS011;66756;42.774;23.354;2023-02-01T02:02:07;3.60;;;2.13;;
77597;SDS011;66756;42.774;23.354;2023-02-01T02:04:33;4.15;;;1.92;;
77597;SDS011;66756;42.774;23.354;2023-02-01T02:07:16;6.47;;;2.40;;
77597;SDS011;66756;42.774;23.354;2023-02-01T02:09:43;4.28;;;2.40;;
77597;SDS011;66756;42.774;23.354;2023-02-01T02:12:09;2.63;;;1.70;;
77597;SDS011;66756;42.774;23.354;2023-02-01T02:14:35;3.58;;;1.60;;
77597;SDS011;66756;42.774;23.354;2023-02-01T02:30:40;4.35;;;1.60;;
77597;SDS011;66756;42.774;23.354;2023-02-01T02:35:48;6.32;;;2.65;;
77597;SDS011;66756;42.774;23.354;2023-02-01T02:38:24;3.45;;;1.98;;
77597;SDS011;66756;42.774;23.354;2023-02-01T02:43:43;5.18;;;2.60;;
77597;SDS011;66756;42.774;23.354;2023-02-01T02:46:40;3.67;;;1.85;;
77597;SDS011;66756;42.774;23.354;2023-02-01T02:49:35;3.72;;;1.98;;
77597;SDS011;66756;42.774;23.354;2023-02-01T02:52:03;3.78;;;1.70;;
77597;SDS011;66756;42.774;23.354;2023-02-01T02:54:49;5.00;;;1.80;;
77597;SDS011;66756;42.774;23.354;2023-02-01T02:57:21;4.45;;;2.30;;
77597;SDS011;66756;42.774;23.354;2023-02-01T03:00:09;5.05;;;2.35;;
77597;SDS011;66756;42.774;23.354;2023-02-01T03:02:55;4.72;;;2.15;;
77597;SDS011;66756;42.774;23.354;2023-02-01T03:05:42;3.20;;;1.48;;
77597;SDS011;66756;42.774;23.354;2023-02-01T03:13:25;3.45;;;2.13;;
77597;SDS011;66756;42.774;23.354;2023-02-01T03:21:00;4.72;;;2.42;;
77597;SDS011;66756;42.774;23.354;2023-02-01T03:23:31;2.13;;;1.27;;
77597;SDS011;66756;42.774;23.354;2023-02-01T03:25:59;4.20;;;1.42;;
77597;SDS011;66756;42.774;23.354;2023-02-01T03:28:27;5.20;;;1.92;;
77597;SDS011;66756;42.774;23.354;2023-02-01T03:30:55;6.93;;;2.03;;
77597;SDS011;66756;42.774;23.354;2023-02-01T03:33:22;2.45;;;1.55;;
77597;SDS011;66756;42.774;23.354;2023-02-01T03:40:45;2.80;;;1.50;;
77597;SDS011;66756;42.774;23.354;2023-02-01T03:43:13;3.65;;;1.73;;
77597;SDS011;66756;42.774;23.354;2023-02-01T03:45:43;2.25;;;1.23;;
77597;SDS011;66756;42.774;23.354;2023-02-01T03:48:11;4.07;;;2.03;;
77597;SDS011;66756;42.774;23.354;2023-02-01T03:50:39;3.28;;;1.80;;
77597;SDS011;66756;42.774;23.354;2023-02-01T03:53:13;3.58;;;1.42;;
77597;SDS011;66756;42.774;23.354;2023-02-01T03:55:42;6.75;;;1.60;;
77597;SDS011;66756;42.774;23.354;2023-02-01T04:00:34;4.25;;;2.25;;
77597;SDS011;66756;42.774;23.354;2023-02-01T04:03:00;6.53;;;2.42;;
77597;SDS011;66756;42.774;23.354;2023-02-01T04:05:27;4.05;;;1.80;;
77597;SDS011;66756;42.774;23.354;2023-02-01T04:07:53;3.20;;;1.83;;
77597;SDS011;66756;42.774;23.354;2023-02-01T04:10:20;5.25;;;1.98;;
77597;SDS011;66756;42.774;23.354;2023-02-01T04:12:46;7.72;;;3.00;;
77597;SDS011;66756;42.774;23.354;2023-02-01T04:15:12;5.43;;;1.83;;
77597;SDS011;66756;42.774;23.354;2023-02-01T04:17:38;4.63;;;1.88;;
77597;SDS011;66756;42.774;23.354;2023-02-01T04:20:05;5.15;;;1.63;;
77597;SDS011;66756;42.774;23.354;2023-02-01T04:22:31;3.72;;;1.15;;
77597;SDS011;66756;42.774;23.354;2023-02-01T04:24:57;3.88;;;1.38;;
77597;SDS011;66756;42.774;23.354;2023-02-01T04:27:23;2.92;;;1.63;;
77597;SDS011;66756;42.774;23.354;2023-02-01T04:29:49;3.08;;;1.23;;
77597;SDS011;66756;42.774;23.354;2023-02-01T04:32:16;3.22;;;1.02;;
77597;SDS011;66756;42.774;23.354;2023-02-01T04:34:42;4.78;;;0.95;;
77597;SDS011;66756;42.774;23.354;2023-02-01T04:37:09;2.95;;;1.00;;
77597;SDS011;66756;42.774;23.354;2023-02-01T04:39:35;4.15;;;1.38;;
77597;SDS011;66756;42.774;23.354;2023-02-01T04:42:01;2.45;;;1.08;;
77597;SDS011;66756;42.774;23.354;2023-02-01T04:44:27;3.85;;;1.45;;
77597;SDS011;66756;42.774;23.354;2023-02-01T04:46:53;3.03;;;1.67;;
77597;SDS011;66756;42.774;23.354;2023-02-01T04:49:19;3.60;;;1.55;;
77597;SDS011;66756;42.774;23.354;2023-02-01T04:51:46;3.17;;;1.73;;
77597;SDS011;66756;42.774;23.354;2023-02-01T04:54:12;3.38;;;1.90;;
77597;SDS011;66756;42.774;23.354;2023-02-01T04:56:39;4.43;;;1.98;;
77597;SDS011;66756;42.774;23.354;2023-02-01T04:59:05;3.80;;;1.55;;
77597;SDS011;66756;42.774;23.354;2023-02-01T05:01:31;4.22;;;2.13;;
77597;SDS011;66756;42.774;23.354;2023-02-01T05:03:57;3.70;;;1.48;;
77597;SDS011;66756;42.774;23.354;2023-02-01T05:06:23;3.50;;;1.70;;
77597;SDS011;66756;42.774;23.354;2023-02-01T05:08:49;3.08;;;1.75;;
77597;SDS011;66756;42.774;23.354;2023-02-01T05:11:15;3.88;;;1.70;;
77597;SDS011;66756;42.774;23.354;2023-02-01T05:14:00;4.20;;;1.98;;
77597;SDS011;66756;42.774;23.354;2023-02-01T05:16:26;5.18;;;2.15;;
77597;SDS011;66756;42.774;23.354;2023-02-01T05:18:52;4.55;;;1.40;;
77597;SDS011;66756;42.774;23.354;2023-02-01T05:21:18;4.28;;;2.00;;
77597;SDS011;66756;42.774;23.354;2023-02-01T05:23:44;4.20;;;1.92;;
77597;SDS011;66756;42.774;23.354;2023-02-01T05:26:29;3.15;;;1.52;;
77597;SDS011;66756;42.774;23.354;2023-02-01T05:28:55;3.00;;;1.45;;
77597;SDS011;66756;42.774;23.354;2023-02-01T05:31:22;3.03;;;1.65;;
77597;SDS011;66756;42.774;23.354;2023-02-01T05:33:49;4.72;;;1.63;;
77597;SDS011;66756;42.774;23.354;2023-02-01T05:36:15;3.22;;;1.77;;
77597;SDS011;66756;42.774;23.354;2023-02-01T05:38:41;6.03;;;1.50;;
77597;SDS011;66756;42.774;23.354;2023-02-01T05:41:07;4.70;;;1.85;;
77597;SDS011;66756;42.774;23.354;2023-02-01T05:43:33;3.42;;;1.55;;
77597;SDS011;66756;42.774;23.354;2023-02-01T05:45:59;3.75;;;1.80;;
77597;SDS011;66756;42.774;23.354;2023-02-01T05:48:25;3.03;;;1.83;;
77597;SDS011;66756;42.774;23.354;2023-02-01T05:50:51;4.40;;;1.70;;
77597;SDS011;66756;42.774;23.354;2023-02-01T05:53:17;3.15;;;1.95;;
77597;SDS011;66756;42.774;23.354;2023-02-01T05:55:43;4.75;;;1.20;;
77597;SDS011;66756;42.774;23.354;2023-02-01T05:58:09;4.07;;;2.30;;
77597;SDS011;66756;42.774;23.354;2023-02-01T06:00:35;4.53;;;1.88;;
77597;SDS011;66756;42.774;23.354;2023-02-01T06:03:01;4.18;;;2.40;;
77597;SDS011;66756;42.774;23.354;2023-02-01T06:05:27;4.95;;;1.65;;
77597;SDS011;66756;42.774;23.354;2023-02-01T06:07:53;5.30;;;1.65;;
77597;SDS011;66756;42.774;23.354;2023-02-01T06:10:19;3.38;;;1.73;;
77597;SDS011;66756;42.774;23.354;2023-02-01T06:12:46;7.53;;;1.42;;
77597;SDS011;66756;42.774;23.354;2023-02-01T06:15:12;4.72;;;1.48;;
77597;SDS011;66756;42.774;23.354;2023-02-01T06:17:40;4.95;;;1.77;;
77597;SDS011;66756;42.774;23.354;2023-02-01T06:20:08;3.40;;;1.65;;
77597;SDS011;66756;42.774;23.354;2023-02-01T06:22:34;7.07;;;2.13;;
77597;SDS011;66756;42.774;23.354;2023-02-01T06:25:01;2.92;;;1.65;;
77597;SDS011;66756;42.774;23.354;2023-02-01T06:27:27;6.43;;;1.45;;
77597;SDS011;66756;42.774;23.354;2023-02-01T06:29:53;4.88;;;1.33;;
77597;SDS011;66756;42.774;23.354;2023-02-01T06:32:20;3.50;;;0.82;;
77597;SDS011;66756;42.774;23.354;2023-02-01T06:34:46;3.28;;;1.27;;
77597;SDS011;66756;42.774;23.354;2023-02-01T06:37:12;3.53;;;1.10;;
77597;SDS011;66756;42.774;23.354;2023-02-01T06:39:39;2.85;;;0.82;;
77597;SDS011;66756;42.774;23.354;2023-02-01T06:42:05;5.20;;;1.58;;
77597;SDS011;66756;42.774;23.354;2023-02-01T06:44:31;4.35;;;1.20;;
77597;SDS011;66756;42.774;23.354;2023-02-01T06:46:57;4.95;;;1.15;;
77597;SDS011;66756;42.774;23.354;2023-02-01T06:49:23;1.70;;;0.93;;
77597;SDS011;66756;42.774;23.354;2023-02-01T06:51:49;1.70;;;0.98;;
77597;SDS011;66756;42.774;23.354;2023-02-01T06:54:15;3.00;;;1.25;;
77597;SDS011;66756;42.774;23.354;2023-02-01T06:56:41;4.13;;;1.10;;
77597;SDS011;66756;42.774;23.354;2023-02-01T06:59:07;2.60;;;1.10;;
77597;SDS011;66756;42.774;23.354;2023-02-01T07:01:33;5.07;;;0.77;;
77597;SDS011;66756;42.774;23.354;2023-02-01T07:04:00;2.22;;;0.75;;
77597;SDS011;66756;42.774;23.354;2023-02-01T07:06:26;5.95;;;1.73;;
77597;SDS011;66756;42.774;23.354;2023-02-01T07:08:52;6.22;;;1.50;;
77597;SDS011;66756;42.774;23.354;2023-02-01T07:11:21;4.70;;;1.30;;
77597;SDS011;66756;42.774;23.354;2023-02-01T07:13:47;5.57;;;2.38;;
77597;SDS011;66756;42.774;23.354;2023-02-01T07:16:15;6.18;;;2.35;;
77597;SDS011;66756;42.774;23.354;2023-02-01T07:18:41;5.03;;;1.17;;
77597;SDS011;66756;42.774;23.354;2023-02-01T07:21:07;6.30;;;1.63;;
77597;SDS011;66756;42.774;23.354;2023-02-01T07:23:33;3.63;;;1.00;;
77597;SDS011;66756;42.774;23.354;2023-02-01T07:26:00;2.58;;;0.93;;
77597;SDS011;66756;42.774;23.354;2023-02-01T07:28:27;1.90;;;0.80;;
77597;SDS011;66756;42.774;23.354;2023-02-01T07:30:54;2.65;;;1.15;;
77597;SDS011;66756;42.774;23.354;2023-02-01T07:33:20;3.83;;;2.22;;
77597;SDS011;66756;42.774;23.354;2023-02-01T07:35:47;4.70;;;1.80;;
77597;SDS011;66756;42.774;23.354;2023-02-01T07:38:14;7.25;;;2.65;;
77597;SDS011;66756;42.774;23.354;2023-02-01T07:40:40;6.57;;;2.60;;
77597;SDS011;66756;42.774;23.354;2023-02-01T07:43:06;4.57;;;2.38;;
77597;SDS011;66756;42.774;23.354;2023-02-01T07:45:33;3.58;;;1.70;;
77597;SDS011;66756;42.774;23.354;2023-02-01T07:47:59;5.43;;;2.22;;
77597;SDS011;66756;42.774;23.354;2023-02-01T07:50:25;3.13;;;1.65;;
77597;SDS011;66756;42.774;23.354;2023-02-01T07:52:51;3.30;;;1.75;;
77597;SDS011;66756;42.774;23.354;2023-02-01T07:55:18;3.30;;;1.50;;
77597;SDS011;66756;42.774;23.354;2023-02-01T07:57:44;5.20;;;1.55;;
77597;SDS011;66756;42.774;23.354;2023-02-01T08:00:10;3.85;;;1.33;;
77597;SDS011;66756;42.774;23.354;2023-02-01T08:02:57;3.05;;;1.23;;
77597;SDS011;66756;42.774;23.354;2023-02-01T08:05:23;2.03;;;0.80;;
77597;SDS011;66756;42.774;23.354;2023-02-01T08:11:07;5.53;;;1.10;;
77597;SDS011;66756;42.774;23.354;2023-02-01T08:13:33;3.42;;;0.98;;
77597;SDS011;66756;42.774;23.354;2023-02-01T08:16:00;1.98;;;0.75;;
77597;SDS011;66756;42.774;23.354;2023-02-01T08:18:27;3.42;;;0.77;;
77597;SDS011;66756;42.774;23.354;2023-02-01T08:20:53;1.98;;;0.65;;
77597;SDS011;66756;42.774;23.354;2023-02-01T08:23:19;2.90;;;1.02;;
77597;SDS011;66756;42.774;23.354;2023-02-01T08:25:45;3.05;;;1.25;;
77597;SDS011;66756;42.774;23.354;2023-02-01T08:28:12;2.08;;;0.90;;
77597;SDS011;66756;42.774;23.354;2023-02-01T08:30:38;3.50;;;0.98;;
77597;SDS011;66756;42.774;23.354;2023-02-01T08:33:05;3.50;;;1.05;;
77597;SDS011;66756;42.774;23.354;2023-02-01T08:35:34;4.15;;;1.05;;
77597;SDS011;66756;42.774;23.354;2023-02-01T08:38:01;5.30;;;1.08;;
77597;SDS011;66756;42.774;23.354;2023-02-01T08:40:27;2.92;;;1.13;;
77597;SDS011;66756;42.774;23.354;2023-02-01T08:42:53;3.15;;;1.38;;
77597;SDS011;66756;42.774;23.354;2023-02-01T08:47:45;1.35;;;0.50;;
77597;SDS011;66756;42.774;23.354;2023-02-01T08:50:14;3.13;;;0.50;;
77597;SDS011;66756;42.774;23.354;2023-02-01T08:52:41;5.43;;;1.17;;
77597;SDS011;66756;42.774;23.354;2023-02-01T08:55:07;1.20;;;0.40;;
77597;SDS011;66756;42.774;23.354;2023-02-01T08:57:33;2.20;;;0.77;;
77597;SDS011;66756;42.774;23.354;2023-02-01T09:00:00;3.10;;;0.80;;
77597;SDS011;66756;42.774;23.354;2023-02-01T09:02:26;3.25;;;0.73;;
77597;SDS011;66756;42.774;23.354;2023-02-01T09:04:52;1.85;;;0.80;;
77597;SDS011;66756;42.774;23.354;2023-02-01T09:07:18;3.42;;;0.75;;
77597;SDS011;66756;42.774;23.354;2023-02-01T09:09:44;3.40;;;0.93;;
77597;SDS011;66756;42.774;23.354;2023-02-01T09:12:10;4.63;;;0.98;;
77597;SDS011;66756;42.774;23.354;2023-02-01T09:14:37;2.53;;;0.95;;
77597;SDS011;66756;42.774;23.354;2023-02-01T09:17:03;2.92;;;0.80;;
77597;SDS011;66756;42.774;23.354;2023-02-01T09:19:30;1.85;;;0.80;;
77597;SDS011;66756;42.774;23.354;2023-02-01T09:21:56;3.85;;;0.82;;
77597;SDS011;66756;42.774;23.354;2023-02-01T09:24:22;2.53;;;0.70;;
77597;SDS011;66756;42.774;23.354;2023-02-01T09:26:48;1.10;;;0.40;;
77597;SDS011;66756;42.774;23.354;2023-02-01T09:29:14;2.38;;;0.93;;
77597;SDS011;66756;42.774;23.354;2023-02-01T09:31:41;2.38;;;0.95;;
77597;SDS011;66756;42.774;23.354;2023-02-01T09:34:07;2.50;;;0.70;;
77597;SDS011;66756;42.774;23.354;2023-02-01T09:36:33;2.72;;;0.32;;
77597;SDS011;66756;42.774;23.354;2023-02-01T09:38:59;2.83;;;0.32;;
77597;SDS011;66756;42.774;23.354;2023-02-01T09:46:43;1.92;;;0.60;;
77597;SDS011;66756;42.774;23.354;2023-02-01T09:49:16;1.75;;;0.80;;
77597;SDS011;66756;42.774;23.354;2023-02-01T09:51:45;3.00;;;0.55;;
77597;SDS011;66756;42.774;23.354;2023-02-01T09:54:16;1.70;;;0.43;;
77597;SDS011;66756;42.774;23.354;2023-02-01T09:56:51;1.88;;;0.75;;
77597;SDS011;66756;42.774;23.354;2023-02-01T09:59:22;2.47;;;0.50;;
77597;SDS011;66756;42.774;23.354;2023-02-01T10:01:49;2.58;;;0.75;;
77597;SDS011;66756;42.774;23.354;2023-02-01T10:04:15;3.10;;;0.77;;
77597;SDS011;66756;42.774;23.354;2023-02-01T10:11:50;2.42;;;0.73;;
77597;SDS011;66756;42.774;23.354;2023-02-01T10:22:10;1.25;;;0.25;;
77597;SDS011;66756;42.774;23.354;2023-02-01T10:24:38;1.92;;;0.55;;
77597;SDS011;66756;42.774;23.354;2023-02-01T10:27:13;3.20;;;0.50;;
77597;SDS011;66756;42.774;23.354;2023-02-01T10:29:41;2.67;;;0.60;;
77597;SDS011;66756;42.774;23.354;2023-02-01T10:32:14;1.63;;;0.55;;
77597;SDS011;66756;42.774;23.354;2023-02-01T10:34:41;2.95;;;0.20;;
77597;SDS011;66756;42.774;23.354;2023-02-01T10:39:37;1.38;;;0.40;;
77597;SDS011;66756;42.774;23.354;2023-02-01T10:42:03;1.95;;;0.45;;
77597;SDS011;66756;42.774;23.354;2023-02-01T10:44:30;2.03;;;0.73;;
77597;SDS011;66756;42.774;23.354;2023-02-01T10:46:57;1.67;;;0.30;;
77597;SDS011;66756;42.774;23.354;2023-02-01T10:49:32;0.77;;;0.20;;
77597;SDS011;66756;42.774;23.354;2023-02-01T10:54:37;2.08;;;1.08;;
77597;SDS011;66756;42.774;23.354;2023-02-01T10:57:07;3.17;;;0.70;;
77597;SDS011;66756;42.774;23.354;2023-02-01T10:59:33;2.90;;;0.30;;
77597;SDS011;66756;42.774;23.354;2023-02-01T11:02:02;2.58;;;0.45;;
77597;SDS011;66756;42.774;23.354;2023-02-01T11:04:33;1.58;;;0.38;;
77597;SDS011;66756;42.774;23.354;2023-02-01T11:07:12;1.20;;;0.40;;
77597;SDS011;66756;42.774;23.354;2023-02-01T11:09:39;1.38;;;0.70;;
77597;SDS011;66756;42.774;23.354;2023-02-01T11:12:07;2.83;;;0.60;;
77597;SDS011;66756;42.774;23.354;2023-02-01T11:14:46;1.85;;;0.32;;
77597;SDS011;66756;42.774;23.354;2023-02-01T11:17:17;1.30;;;0.45;;
77597;SDS011;66756;42.774;23.354;2023-02-01T11:20:05;2.15;;;0.43;;
77597;SDS011;66756;42.774;23.354;2023-02-01T11:22:32;4.25;;;0.93;;
77597;SDS011;66756;42.774;23.354;2023-02-01T11:24:58;2.53;;;0.15;;
77597;SDS011;66756;42.774;23.354;2023-02-01T11:27:25;1.77;;;0.38;;
77597;SDS011;66756;42.774;23.354;2023-02-01T11:29:52;1.75;;;0.40;;
77597;SDS011;66756;42.774;23.354;2023-02-01T11:32:19;0.95;;;0.20;;
77597;SDS011;66756;42.774;23.354;2023-02-01T11:34:49;3.50;;;0.40;;
77597;SDS011;66756;42.774;23.354;2023-02-01T11:37:36;1.20;;;0.22;;
77597;SDS011;66756;42.774;23.354;2023-02-01T11:40:22;2.13;;;0.35;;
77597;SDS011;66756;42.774;23.354;2023-02-01T11:43:07;1.83;;;0.75;;
77597;SDS011;66756;42.774;23.354;2023-02-01T11:45:34;1.80;;;0.60;;
77597;SDS011;66756;42.774;23.354;2023-02-01T11:48:02;1.48;;;0.40;;
77597;SDS011;66756;42.774;23.354;2023-02-01T12:04:34;2.63;;;0.52;;
77597;SDS011;66756;42.774;23.354;2023-02-01T12:09:18;1.27;;;0.22;;
77597;SDS011;66756;42.774;23.354;2023-02-01T12:14:38;1.92;;;0.57;;
77597;SDS011;66756;42.774;23.354;2023-02-01T12:19:35;2.63;;;0.20;;
77597;SDS011;66756;42.774;23.354;2023-02-01T12:34:44;1.30;;;0.50;;
77597;SDS011;66756;42.774;23.354;2023-02-01T12:39:54;2.05;;;0.32;;
77597;SDS011;66756;42.774;23.354;2023-02-01T12:45:01;3.40;;;0.90;;
77597;SDS011;66756;42.774;23.354;2023-02-01T12:47:32;2.50;;;0.70;;
77597;SDS011;66756;42.774;23.354;2023-02-01T12:50:02;1.98;;;0.38;;
77597;SDS011;66756;42.774;23.354;2023-02-01T12:52:37;1.48;;;0.55;;
77597;SDS011;66756;42.774;23.354;2023-02-01T12:57:31;3.00;;;0.55;;
77597;SDS011;66756;42.774;23.354;2023-02-01T13:00:32;1.05;;;0.60;;
77597;SDS011;66756;42.774;23.354;2023-02-01T13:05:21;1.40;;;0.77;;
77597;SDS011;66756;42.774;23.354;2023-02-01T13:10:16;1.42;;;0.38;;
77597;SDS011;66756;42.774;23.354;2023-02-01T13:15:30;1.70;;;0.35;;
77597;SDS011;66756;42.774;23.354;2023-02-01T13:17:58;1.42;;;0.30;;
77597;SDS011;66756;42.774;23.354;2023-02-01T13:20:37;0.98;;;0.35;;
77597;SDS011;66756;42.774;23.354;2023-02-01T13:23:13;1.25;;;0.43;;
77597;SDS011;66756;42.774;23.354;2023-02-01T13:25:48;2.33;;;0.30;;
77597;SDS011;66756;42.774;23.354;2023-02-01T13:28:58;1.35;;;0.40;;
77597;SDS011;66756;42.774;23.354;2023-02-01T13:33:37;2.33;;;0.32;;
77597;SDS011;66756;42.774;23.354;2023-02-01T13:41:30;1.42;;;0.43;;
77597;SDS011;66756;42.774;23.354;2023-02-01T13:44:20;1.80;;;0.63;;
77597;SDS011;66756;42.774;23.354;2023-02-01T13:46:45;2.00;;;0.47;;
77597;SDS011;66756;42.774;23.354;2023-02-01T13:49:25;2.53;;;0.70;;
77597;SDS011;66756;42.774;23.354;2023-02-01T13:51:53;2.22;;;0.60;;
77597;SDS011;66756;42.774;23.354;2023-02-01T13:54:38;1.40;;;0.30;;
77597;SDS011;66756;42.774;23.354;2023-02-01T13:57:05;2.20;;;0.40;;
77597;SDS011;66756;42.774;23.354;2023-02-01T13:59:36;2.72;;;0.75;;
77597;SDS011;66756;42.774;23.354;2023-02-01T14:04:48;1.50;;;0.50;;
77597;SDS011;66756;42.774;23.354;2023-02-01T14:07:18;1.88;;;0.50;;
77597;SDS011;66756;42.774;23.354;2023-02-01T14:09:44;4.50;;;1.08;;
77597;SDS011;66756;42.774;23.354;2023-02-01T14:19:47;2.28;;;0.82;;
77597;SDS011;66756;42.774;23.354;2023-02-01T14:24:52;2.17;;;0.60;;
77597;SDS011;66756;42.774;23.354;2023-02-01T14:27:29;3.38;;;0.50;;
77597;SDS011;66756;42.774;23.354;2023-02-01T14:29:58;2.85;;;0.45;;
77597;SDS011;66756;42.774;23.354;2023-02-01T14:32:26;1.60;;;0.50;;
77597;SDS011;66756;42.774;23.354;2023-02-01T14:34:56;1.58;;;0.32;;
77597;SDS011;66756;42.774;23.354;2023-02-01T14:37:31;1.60;;;0.60;;
77597;SDS011;66756;42.774;23.354;2023-02-01T14:40:02;3.38;;;0.28;;
77597;SDS011;66756;42.774;23.354;2023-02-01T14:44:55;2.75;;;0.77;;
77597;SDS011;66756;42.774;23.354;2023-02-01T14:57:37;2.45;;;0.73;;
77597;SDS011;66756;42.774;23.354;2023-02-01T15:00:07;2.42;;;0.50;;
77597;SDS011;66756;42.774;23.354;2023-02-01T15:02:38;2.53;;;0.88;;
77597;SDS011;66756;42.774;23.354;2023-02-01T15:05:16;2.30;;;1.15;;
77597;SDS011;66756;42.774;23.354;2023-02-01T15:07:46;1.88;;;0.57;;
77597;SDS011;66756;42.774;23.354;2023-02-01T15:10:12;3.55;;;0.70;;
77597;SDS011;66756;42.774;23.354;2023-02-01T15:12:40;4.43;;;0.77;;
77597;SDS011;66756;42.774;23.354;2023-02-01T15:15:10;2.28;;;0.90;;
77597;SDS011;66756;42.774;23.354;2023-02-01T15:17:37;3.20;;;0.90;;
77597;SDS011;66756;42.774;23.354;2023-02-01T15:20:11;3.42;;;1.05;;
77597;SDS011;66756;42.774;23.354;2023-02-01T15:22:37;1.83;;;0.80;;
77597;SDS011;66756;42.774;23.354;2023-02-01T15:25:04;2.50;;;0.52;;
77597;SDS011;66756;42.774;23.354;2023-02-01T15:27:31;1.90;;;0.60;;
77597;SDS011;66756;42.774;23.354;2023-02-01T15:30:07;2.42;;;0.80;;
77597;SDS011;66756;42.774;23.354;2023-02-01T15:32:35;2.97;;;0.95;;
77597;SDS011;66756;42.774;23.354;2023-02-01T15:35:03;4.68;;;1.58;;
77597;SDS011;66756;42.774;23.354;2023-02-01T15:37:29;2.05;;;0.60;;
77597;SDS011;66756;42.774;23.354;2023-02-01T15:42:41;3.72;;;1.20;;
77597;SDS011;66756;42.774;23.354;2023-02-01T15:45:16;1.98;;;0.70;;
77597;SDS011;66756;42.774;23.354;2023-02-01T15:47:46;3.20;;;0.60;;
77597;SDS011;66756;42.774;23.354;2023-02-01T15:50:12;2.25;;;0.70;;
77597;SDS011;66756;42.774;23.354;2023-02-01T15:52:39;5.93;;;1.45;;
77597;SDS011;66756;42.774;23.354;2023-02-01T16:00:24;4.35;;;1.15;;
77597;SDS011;66756;42.774;23.354;2023-02-01T16:10:38;2.55;;;0.73;;
77597;SDS011;66756;42.774;23.354;2023-02-01T16:13:04;2.35;;;0.90;;
77597;SDS011;66756;42.774;23.354;2023-02-01T16:15:30;3.15;;;1.13;;
77597;SDS011;66756;42.774;23.354;2023-02-01T16:17:56;2.97;;;0.75;;
77597;SDS011;66756;42.774;23.354;2023-02-01T16:20:22;2.80;;;0.73;;
77597;SDS011;66756;42.774;23.354;2023-02-01T16:22:48;2.42;;;0.60;;
77597;SDS011;66756;42.774;23.354;2023-02-01T16:25:14;2.92;;;0.77;;
77597;SDS011;66756;42.774;23.354;2023-02-01T16:27:40;2.45;;;1.15;;
77597;SDS011;66756;42.774;23.354;2023-02-01T16:30:06;3.47;;;1.20;;
77597;SDS011;66756;42.774;23.354;2023-02-01T16:32:35;3.33;;;1.45;;
77597;SDS011;66756;42.774;23.354;2023-02-01T16:35:03;2.03;;;1.40;;
77597;SDS011;66756;42.774;23.354;2023-02-01T16:37:30;3.65;;;0.77;;
77597;SDS011;66756;42.774;23.354;2023-02-01T16:39:58;2.78;;;1.45;;
77597;SDS011;66756;42.774;23.354;2023-02-01T16:42:24;4.22;;;1.13;;
77597;SDS011;66756;42.774;23.354;2023-02-01T16:44:53;2.22;;;0.70;;
77597;SDS011;66756;42.774;23.354;2023-02-01T16:47:20;2.95;;;1.25;;
77597;SDS011;66756;42.774;23.354;2023-02-01T16:49:46;4.75;;;1.30;;
77597;SDS011;66756;42.774;23.354;2023-02-01T16:52:14;3.35;;;1.27;;
77597;SDS011;66756;42.774;23.354;2023-02-01T16:54:40;2.78;;;1.00;;
77597;SDS011;66756;42.774;23.354;2023-02-01T16:57:10;2.58;;;0.90;;
77597;SDS011;66756;42.774;23.354;2023-02-01T16:59:36;7.40;;;3.15;;
77597;SDS011;66756;42.774;23.354;2023-02-01T17:02:02;7.07;;;2.90;;
77597;SDS011;66756;42.774;23.354;2023-02-01T17:04:28;7.93;;;3.80;;
77597;SDS011;66756;42.774;23.354;2023-02-01T17:06:54;8.77;;;2.55;;
77597;SDS011;66756;42.774;23.354;2023-02-01T17:09:20;8.35;;;3.03;;
77597;SDS011;66756;42.774;23.354;2023-02-01T17:11:48;8.13;;;3.38;;
77597;SDS011;66756;42.774;23.354;2023-02-01T17:14:15;6.47;;;2.40;;
77597;SDS011;66756;42.774;23.354;2023-02-01T17:16:41;8.68;;;3.60;;
77597;SDS011;66756;42.774;23.354;2023-02-01T17:19:12;7.07;;;2.70;;
77597;SDS011;66756;42.774;23.354;2023-02-01T17:21:43;4.20;;;1.90;;
77597;SDS011;66756;42.774;23.354;2023-02-01T17:24:13;6.07;;;2.15;;
77597;SDS011;66756;42.774;23.354;2023-02-01T17:26:40;6.15;;;2.85;;